sensor_id;sensor_type;location;lat;lon;timestamp;P1;P2;P0
46381;PMS5003;66809;52.974;-2.514;2023-08-06T00:01:46;4.933333333333334;4.483333333333333;
46381;PMS5003;66809;52.974;-2.514;2023-08-06T00:03:46;4.85;4.433333333333334;
46381;PMS5003;66809;52.974;-2.514;2023-08-06T00:05:46;4.816666666666666;4.416666666666667;
46381;PMS5003;66809;52.974;-2.514;2023-08-06T00:07:46;4.816666666666666;4.416666666666667;
46381;PMS5003;66809;52.974;-2.514;2023-08-06T00:09:47;4.783333333333333;4.366666666666666;
46381;PMS5003;66809;52.974;-2.514;2023-08-06T00:11:46;4.683333333333334;4.3;
46381;PMS5003;66809;52.974;-2.514;2023-08-06T00:13:46;4.65;4.3;
46381;PMS5003;66809;52.974;-2.514;2023-08-06T00:15:46;4.666666666666667;4.3;
46381;PMS5003;66809;52.974;-2.514;2023-08-06T00:17:46;4.75;4.35;
46381;PMS5003;66809;52.974;-2.514;2023-08-06T00:19:47;4.866666666666666;4.383333333333334;
46381;PMS5003;66809;52.974;-2.514;2023-08-06T00:21:46;4.833333333333333;4.35;
46381;PMS5003;66809;52.974;-2.514;2023-08-06T00:23:46;4.833333333333333;4.316666666666666;
46381;PMS5003;66809;52.974;-2.514;2023-08-06T00:25:46;4.833333333333333;4.333333333333333;
46381;PMS5003;66809;52.974;-2.514;2023-08-06T00:27:46;4.8;4.3;
46381;PMS5003;66809;52.974;-2.514;2023-08-06T00:29:46;4.716666666666667;4.2;
46381;PMS5003;66809;52.974;-2.514;2023-08-06T00:31:46;4.883333333333334;4.3;
46381;PMS5003;66809;52.974;-2.514;2023-08-06T00:33:47;4.916666666666667;4.283333333333333;
46381;PMS5003;66809;52.974;-2.514;2023-08-06T00:35:46;4.866666666666666;4.216666666666667;
46381;PMS5003;66809;52.974;-2.514;2023-08-06T00:37:46;4.883333333333334;4.233333333333333;
46381;PMS5003;66809;52.974;-2.514;2023-08-06T00:39:47;4.85;4.166666666666667;
46381;PMS5003;66809;52.974;-2.514;2023-08-06T00:41:46;4.766666666666667;4.133333333333334;
46381;PMS5003;66809;52.974;-2.514;2023-08-06T00:43:47;4.75;4.116666666666666;
46381;PMS5003;66809;52.974;-2.514;2023-08-06T00:45:47;4.683333333333334;4.1;
46381;PMS5003;66809;52.974;-2.514;2023-08-06T00:47:46;4.65;4.05;
46381;PMS5003;66809;52.974;-2.514;2023-08-06T00:49:46;4.633333333333334;4.033333333333333;
46381;PMS5003;66809;52.974;-2.514;2023-08-06T00:51:46;4.633333333333334;4.016666666666667;
46381;PMS5003;66809;52.974;-2.514;2023-08-06T00:53:46;4.683333333333334;4.066666666666666;
46381;PMS5003;66809;52.974;-2.514;2023-08-06T00:55:47;4.633333333333334;4.033333333333333;
46381;PMS5003;66809;52.974;-2.514;2023-08-06T00:57:46;4.666666666666667;4.033333333333333;
46381;PMS5003;66809;52.974;-2.514;2023-08-06T00:59:46;4.683333333333334;4.016666666666667;
46381;PMS5003;66809;52.974;-2.514;2023-08-06T01:01:46;4.783333333333333;4.083333333333333;
46381;PMS5003;66809;52.974;-2.514;2023-08-06T01:03:46;4.8;4.1;
46381;PMS5003;66809;52.974;-2.514;2023-08-06T01:05:46;4.9;4.133333333333334;
46381;PMS5003;66809;52.974;-2.514;2023-08-06T01:07:48;4.933333333333334;4.166666666666667;
46381;PMS5003;66809;52.974;-2.514;2023-08-06T01:09:50;4.95;4.2;
46381;PMS5003;66809;52.974;-2.514;2023-08-06T01:11:50;5.083333333333333;4.316666666666666;
46381;PMS5003;66809;52.974;-2.514;2023-08-06T01:13:47;5.15;4.35;
46381;PMS5003;66809;52.974;-2.514;2023-08-06T01:15:46;5.233333333333333;4.433333333333334;
46381;PMS5003;66809;52.974;-2.514;2023-08-06T01:17:47;5.316666666666666;4.533333333333333;
46381;PMS5003;66809;52.974;-2.514;2023-08-06T01:19:46;5.316666666666666;4.566666666666666;
46381;PMS5003;66809;52.974;-2.514;2023-08-06T01:21:46;5.433333333333334;4.666666666666667;
46381;PMS5003;66809;52.974;-2.514;2023-08-06T01:23:46;5.516666666666667;4.75;
46381;PMS5003;66809;52.974;-2.514;2023-08-06T01:25:48;5.516666666666667;4.766666666666667;
46381;PMS5003;66809;52.974;-2.514;2023-08-06T01:27:47;5.516666666666667;4.75;
46381;PMS5003;66809;52.974;-2.514;2023-08-06T01:29:47;5.55;4.783333333333333;
46381;PMS5003;66809;52.974;-2.514;2023-08-06T01:31:47;5.5;4.75;
46381;PMS5003;66809;52.974;-2.514;2023-08-06T01:33:46;5.45;4.75;
46381;PMS5003;66809;52.974;-2.514;2023-08-06T01:35:46;5.45;4.766666666666667;
46381;PMS5003;66809;52.974;-2.514;2023-08-06T01:37:46;5.483333333333333;4.766666666666667;
46381;PMS5003;66809;52.974;-2.514;2023-08-06T01:39:47;5.6;4.866666666666666;
46381;PMS5003;66809;52.974;-2.514;2023-08-06T01:41:46;5.616666666666666;4.9;
46381;PMS5003;66809;52.974;-2.514;2023-08-06T01:43:46;5.616666666666666;4.883333333333334;
46381;PMS5003;66809;52.974;-2.514;2023-08-06T01:45:46;5.6;4.866666666666666;
46381;PMS5003;66809;52.974;-2.514;2023-08-06T01:47:46;5.65;4.883333333333334;
46381;PMS5003;66809;52.974;-2.514;2023-08-06T01:49:47;5.65;4.866666666666666;
46381;PMS5003;66809;52.974;-2.514;2023-08-06T01:51:46;5.583333333333333;4.833333333333333;
46381;PMS5003;66809;52.974;-2.514;2023-08-06T01:53:46;5.5;4.783333333333333;
46381;PMS5003;66809;52.974;-2.514;2023-08-06T01:55:47;5.516666666666667;4.8;
46381;PMS5003;66809;52.974;-2.514;2023-08-06T01:57:46;5.433333333333334;4.733333333333333;
46381;PMS5003;66809;52.974;-2.514;2023-08-06T01:59:47;5.4;4.733333333333333;
46381;PMS5003;66809;52.974;-2.514;2023-08-06T02:01:46;5.266666666666667;4.633333333333334;
46381;PMS5003;66809;52.974;-2.514;2023-08-06T02:03:46;5.266666666666667;4.616666666666666;
46381;PMS5003;66809;52.974;-2.514;2023-08-06T02:05:47;5.25;4.616666666666666;
46381;PMS5003;66809;52.974;-2.514;2023-08-06T02:07:46;5.15;4.516666666666667;
46381;PMS5003;66809;52.974;-2.514;2023-08-06T02:09:46;5.083333333333333;4.433333333333334;
46381;PMS5003;66809;52.974;-2.514;2023-08-06T02:11:46;4.933333333333334;4.333333333333333;
46381;PMS5003;66809;52.974;-2.514;2023-08-06T02:13:46;4.866666666666666;4.266666666666667;
46381;PMS5003;66809;52.974;-2.514;2023-08-06T02:15:46;4.8;4.2;
46381;PMS5003;66809;52.974;-2.514;2023-08-06T02:17:46;4.666666666666667;4.083333333333333;
46381;PMS5003;66809;52.974;-2.514;2023-08-06T02:19:46;4.55;4.016666666666667;
46381;PMS5003;66809;52.974;-2.514;2023-08-06T02:21:46;4.433333333333334;3.9166666666666665;
46381;PMS5003;66809;52.974;-2.514;2023-08-06T02:23:46;4.383333333333334;3.8833333333333333;
46381;PMS5003;66809;52.974;-2.514;2023-08-06T02:25:46;4.35;3.8333333333333335;
46381;PMS5003;66809;52.974;-2.514;2023-08-06T02:27:46;4.35;3.85;
46381;PMS5003;66809;52.974;-2.514;2023-08-06T02:29:46;4.333333333333333;3.8333333333333335;
46381;PMS5003;66809;52.974;-2.514;2023-08-06T02:31:47;4.2;3.75;
46381;PMS5003;66809;52.974;-2.514;2023-08-06T02:33:46;4.15;3.7;
46381;PMS5003;66809;52.974;-2.514;2023-08-06T02:35:46;4.1;3.65;
46381;PMS5003;66809;52.974;-2.514;2023-08-06T02:37:46;4.016666666666667;3.6;
46381;PMS5003;66809;52.974;-2.514;2023-08-06T02:39:46;3.9166666666666665;3.55;
46381;PMS5003;66809;52.974;-2.514;2023-08-06T02:41:46;3.85;3.4833333333333334;
46381;PMS5003;66809;52.974;-2.514;2023-08-06T02:43:46;3.9166666666666665;3.5166666666666666;
46381;PMS5003;66809;52.974;-2.514;2023-08-06T02:45:46;3.933333333333333;3.533333333333333;
46381;PMS5003;66809;52.974;-2.514;2023-08-06T02:47:46;3.9;3.533333333333333;
46381;PMS5003;66809;52.974;-2.514;2023-08-06T02:49:46;3.9166666666666665;3.533333333333333;
46381;PMS5003;66809;52.974;-2.514;2023-08-06T02:51:46;3.8666666666666667;3.4833333333333334;
46381;PMS5003;66809;52.974;-2.514;2023-08-06T02:53:47;3.933333333333333;3.5166666666666666;
46381;PMS5003;66809;52.974;-2.514;2023-08-06T02:55:46;4.033333333333333;3.55;
46381;PMS5003;66809;52.974;-2.514;2023-08-06T02:57:46;4.1;3.6333333333333333;
46381;PMS5003;66809;52.974;-2.514;2023-08-06T02:59:46;4.1;3.6333333333333333;
46381;PMS5003;66809;52.974;-2.514;2023-08-06T03:01:46;4.133333333333334;3.6666666666666665;
46381;PMS5003;66809;52.974;-2.514;2023-08-06T03:03:46;4.133333333333334;3.6666666666666665;
46381;PMS5003;66809;52.974;-2.514;2023-08-06T03:05:51;4.116666666666666;3.683333333333333;
46381;PMS5003;66809;52.974;-2.514;2023-08-06T03:07:47;4.133333333333334;3.683333333333333;
46381;PMS5003;66809;52.974;-2.514;2023-08-06T03:09:46;4.15;3.7;
46381;PMS5003;66809;52.974;-2.514;2023-08-06T03:11:46;4.133333333333334;3.65;
46381;PMS5003;66809;52.974;-2.514;2023-08-06T03:13:46;4.066666666666666;3.6166666666666667;
46381;PMS5003;66809;52.974;-2.514;2023-08-06T03:15:54;4.066666666666666;3.6333333333333333;
46381;PMS5003;66809;52.974;-2.514;2023-08-06T03:17:47;4.083333333333333;3.65;
46381;PMS5003;66809;52.974;-2.514;2023-08-06T03:19:46;4.1;3.65;
46381;PMS5003;66809;52.974;-2.514;2023-08-06T03:21:46;4.133333333333334;3.6666666666666665;
46381;PMS5003;66809;52.974;-2.514;2023-08-06T03:23:47;4.166666666666667;3.6666666666666665;
46381;PMS5003;66809;52.974;-2.514;2023-08-06T03:25:46;4.183333333333334;3.7;
46381;PMS5003;66809;52.974;-2.514;2023-08-06T03:27:46;4.15;3.6666666666666665;
46381;PMS5003;66809;52.974;-2.514;2023-08-06T03:29:48;4.15;3.683333333333333;
46381;PMS5003;66809;52.974;-2.514;2023-08-06T03:31:46;4.166666666666667;3.7;
46381;PMS5003;66809;52.974;-2.514;2023-08-06T03:33:46;4.2;3.7333333333333334;
46381;PMS5003;66809;52.974;-2.514;2023-08-06T03:35:46;4.283333333333333;3.75;
46381;PMS5003;66809;52.974;-2.514;2023-08-06T03:37:47;4.3;3.7666666666666666;
46381;PMS5003;66809;52.974;-2.514;2023-08-06T03:39:46;4.216666666666667;3.7;
46381;PMS5003;66809;52.974;-2.514;2023-08-06T03:41:46;4.316666666666666;3.7666666666666666;
46381;PMS5003;66809;52.974;-2.514;2023-08-06T03:43:46;4.333333333333333;3.816666666666667;
46381;PMS5003;66809;52.974;-2.514;2023-08-06T03:45:46;4.35;3.816666666666667;
46381;PMS5003;66809;52.974;-2.514;2023-08-06T03:47:46;4.35;3.816666666666667;
46381;PMS5003;66809;52.974;-2.514;2023-08-06T03:49:46;4.333333333333333;3.816666666666667;
46381;PMS5003;66809;52.974;-2.514;2023-08-06T03:51:46;4.4;3.8833333333333333;
46381;PMS5003;66809;52.974;-2.514;2023-08-06T03:53:46;4.35;3.8666666666666667;
46381;PMS5003;66809;52.974;-2.514;2023-08-06T03:55:47;4.333333333333333;3.8833333333333333;
46381;PMS5003;66809;52.974;-2.514;2023-08-06T03:57:46;4.35;3.8833333333333333;
46381;PMS5003;66809;52.974;-2.514;2023-08-06T03:59:46;4.416666666666667;3.8833333333333333;
46381;PMS5003;66809;52.974;-2.514;2023-08-06T04:01:47;4.333333333333333;3.8333333333333335;
46381;PMS5003;66809;52.974;-2.514;2023-08-06T04:03:46;4.416666666666667;3.933333333333333;
46381;PMS5003;66809;52.974;-2.514;2023-08-06T04:05:46;4.4;3.9166666666666665;
46381;PMS5003;66809;52.974;-2.514;2023-08-06T04:07:47;4.433333333333334;3.95;
46381;PMS5003;66809;52.974;-2.514;2023-08-06T04:09:54;4.45;3.9833333333333334;
46381;PMS5003;66809;52.974;-2.514;2023-08-06T04:11:46;4.5;4.066666666666666;
46381;PMS5003;66809;52.974;-2.514;2023-08-06T04:13:46;4.6;4.133333333333334;
46381;PMS5003;66809;52.974;-2.514;2023-08-06T04:15:46;4.6;4.133333333333334;
46381;PMS5003;66809;52.974;-2.514;2023-08-06T04:17:46;4.55;4.083333333333333;
46381;PMS5003;66809;52.974;-2.514;2023-08-06T04:19:47;4.566666666666666;4.1;
46381;PMS5003;66809;52.974;-2.514;2023-08-06T04:21:46;4.616666666666666;4.116666666666666;
46381;PMS5003;66809;52.974;-2.514;2023-08-06T04:23:46;4.6;4.133333333333334;
46381;PMS5003;66809;52.974;-2.514;2023-08-06T04:25:47;4.6;4.133333333333334;
46381;PMS5003;66809;52.974;-2.514;2023-08-06T04:27:46;4.65;4.15;
46381;PMS5003;66809;52.974;-2.514;2023-08-06T04:29:46;4.65;4.15;
46381;PMS5003;66809;52.974;-2.514;2023-08-06T04:31:47;4.666666666666667;4.166666666666667;
46381;PMS5003;66809;52.974;-2.514;2023-08-06T04:33:46;4.75;4.2;
46381;PMS5003;66809;52.974;-2.514;2023-08-06T04:35:46;4.8;4.283333333333333;
46381;PMS5003;66809;52.974;-2.514;2023-08-06T04:37:46;4.75;4.233333333333333;
46381;PMS5003;66809;52.974;-2.514;2023-08-06T04:39:46;4.8;4.25;
46381;PMS5003;66809;52.974;-2.514;2023-08-06T04:41:47;4.683333333333334;4.166666666666667;
46381;PMS5003;66809;52.974;-2.514;2023-08-06T04:43:46;4.583333333333333;4.066666666666666;
46381;PMS5003;66809;52.974;-2.514;2023-08-06T04:45:46;4.6;4.1;
46381;PMS5003;66809;52.974;-2.514;2023-08-06T04:47:46;4.566666666666666;4.1;
46381;PMS5003;66809;52.974;-2.514;2023-08-06T04:49:46;4.566666666666666;4.116666666666666;
46381;PMS5003;66809;52.974;-2.514;2023-08-06T04:51:47;4.516666666666667;4.066666666666666;
46381;PMS5003;66809;52.974;-2.514;2023-08-06T04:53:46;4.5;4.033333333333333;
46381;PMS5003;66809;52.974;-2.514;2023-08-06T04:55:46;4.45;3.9833333333333334;
46381;PMS5003;66809;52.974;-2.514;2023-08-06T04:57:46;4.4;3.933333333333333;
46381;PMS5003;66809;52.974;-2.514;2023-08-06T04:59:47;4.35;3.95;
46381;PMS5003;66809;52.974;-2.514;2023-08-06T05:01:46;4.4;4.0;
46381;PMS5003;66809;52.974;-2.514;2023-08-06T05:03:46;4.3;3.8333333333333335;
46381;PMS5003;66809;52.974;-2.514;2023-08-06T05:05:46;4.266666666666667;3.783333333333333;
46381;PMS5003;66809;52.974;-2.514;2023-08-06T05:07:47;4.216666666666667;3.75;
46381;PMS5003;66809;52.974;-2.514;2023-08-06T05:09:46;4.233333333333333;3.783333333333333;
46381;PMS5003;66809;52.974;-2.514;2023-08-06T05:11:47;4.216666666666667;3.7333333333333334;
46381;PMS5003;66809;52.974;-2.514;2023-08-06T05:13:46;4.216666666666667;3.7333333333333334;
46381;PMS5003;66809;52.974;-2.514;2023-08-06T05:15:46;4.133333333333334;3.65;
46381;PMS5003;66809;52.974;-2.514;2023-08-06T05:17:46;4.183333333333334;3.65;
46381;PMS5003;66809;52.974;-2.514;2023-08-06T05:19:47;4.166666666666667;3.6333333333333333;
46381;PMS5003;66809;52.974;-2.514;2023-08-06T05:21:46;4.1;3.6;
46381;PMS5003;66809;52.974;-2.514;2023-08-06T05:23:46;4.033333333333333;3.533333333333333;
46381;PMS5003;66809;52.974;-2.514;2023-08-06T05:25:46;4.033333333333333;3.4833333333333334;
46381;PMS5003;66809;52.974;-2.514;2023-08-06T05:27:46;3.9833333333333334;3.45;
46381;PMS5003;66809;52.974;-2.514;2023-08-06T05:29:47;3.9166666666666665;3.3666666666666667;
46381;PMS5003;66809;52.974;-2.514;2023-08-06T05:31:46;3.8333333333333335;3.283333333333333;
46381;PMS5003;66809;52.974;-2.514;2023-08-06T05:33:47;3.7;3.2;
46381;PMS5003;66809;52.974;-2.514;2023-08-06T05:35:46;3.533333333333333;3.05;
46381;PMS5003;66809;52.974;-2.514;2023-08-06T05:37:46;3.5166666666666666;3.033333333333333;
46381;PMS5003;66809;52.974;-2.514;2023-08-06T05:39:46;3.4166666666666665;2.966666666666667;
46381;PMS5003;66809;52.974;-2.514;2023-08-06T05:41:46;3.3666666666666667;2.9166666666666665;
46381;PMS5003;66809;52.974;-2.514;2023-08-06T05:43:46;3.3;2.8666666666666667;
46381;PMS5003;66809;52.974;-2.514;2023-08-06T05:45:48;3.183333333333333;2.75;
46381;PMS5003;66809;52.974;-2.514;2023-08-06T05:47:47;3.1;2.6666666666666665;
46381;PMS5003;66809;52.974;-2.514;2023-08-06T05:49:46;3.05;2.6166666666666667;
46381;PMS5003;66809;52.974;-2.514;2023-08-06T05:51:46;3.0;2.566666666666667;
46381;PMS5003;66809;52.974;-2.514;2023-08-06T05:53:46;2.933333333333333;2.5166666666666666;
46381;PMS5003;66809;52.974;-2.514;2023-08-06T05:55:47;2.8666666666666667;2.45;
46381;PMS5003;66809;52.974;-2.514;2023-08-06T05:57:46;2.783333333333333;2.3666666666666667;
46381;PMS5003;66809;52.974;-2.514;2023-08-06T05:59:46;2.6666666666666665;2.25;
46381;PMS5003;66809;52.974;-2.514;2023-08-06T06:01:46;2.6166666666666667;2.1666666666666665;
46381;PMS5003;66809;52.974;-2.514;2023-08-06T06:03:46;2.5;2.1166666666666667;
46381;PMS5003;66809;52.974;-2.514;2023-08-06T06:05:46;2.3833333333333333;2.033333333333333;
46381;PMS5003;66809;52.974;-2.514;2023-08-06T06:07:46;2.3333333333333335;1.9833333333333334;
46381;PMS5003;66809;52.974;-2.514;2023-08-06T06:09:46;2.2;1.8333333333333333;
46381;PMS5003;66809;52.974;-2.514;2023-08-06T06:11:46;2.0833333333333335;1.75;
46381;PMS5003;66809;52.974;-2.514;2023-08-06T06:13:46;2.0166666666666666;1.6666666666666667;
46381;PMS5003;66809;52.974;-2.514;2023-08-06T06:15:46;2.0166666666666666;1.6666666666666667;
46381;PMS5003;66809;52.974;-2.514;2023-08-06T06:17:46;1.95;1.65;
46381;PMS5003;66809;52.974;-2.514;2023-08-06T06:19:46;1.9;1.5833333333333333;
46381;PMS5003;66809;52.974;-2.514;2023-08-06T06:21:46;1.85;1.5333333333333334;
46381;PMS5003;66809;52.974;-2.514;2023-08-06T06:23:47;1.8;1.5;
46381;PMS5003;66809;52.974;-2.514;2023-08-06T06:25:47;1.7333333333333334;1.4666666666666666;
46381;PMS5003;66809;52.974;-2.514;2023-08-06T06:27:46;1.75;1.4666666666666666;
46381;PMS5003;66809;52.974;-2.514;2023-08-06T06:29:46;1.75;1.4833333333333334;
46381;PMS5003;66809;52.974;-2.514;2023-08-06T06:31:46;1.75;1.4833333333333334;
46381;PMS5003;66809;52.974;-2.514;2023-08-06T06:33:46;1.7833333333333334;1.4833333333333334;
46381;PMS5003;66809;52.974;-2.514;2023-08-06T06:35:46;1.7833333333333334;1.5;
46381;PMS5003;66809;52.974;-2.514;2023-08-06T06:37:46;1.8;1.5;
46381;PMS5003;66809;52.974;-2.514;2023-08-06T06:39:46;1.8333333333333333;1.5166666666666666;
46381;PMS5003;66809;52.974;-2.514;2023-08-06T06:41:46;1.8666666666666667;1.5166666666666666;
46381;PMS5003;66809;52.974;-2.514;2023-08-06T06:43:46;1.95;1.55;
46381;PMS5003;66809;52.974;-2.514;2023-08-06T06:45:47;1.9833333333333334;1.55;
46381;PMS5003;66809;52.974;-2.514;2023-08-06T06:47:46;2.0833333333333335;1.6166666666666667;
46381;PMS5003;66809;52.974;-2.514;2023-08-06T06:49:46;2.1333333333333333;1.6;
46381;PMS5003;66809;52.974;-2.514;2023-08-06T06:51:46;2.183333333333333;1.65;
46381;PMS5003;66809;52.974;-2.514;2023-08-06T06:53:47;2.183333333333333;1.6333333333333333;
46381;PMS5003;66809;52.974;-2.514;2023-08-06T06:55:46;2.2;1.6833333333333333;
46381;PMS5003;66809;52.974;-2.514;2023-08-06T06:57:46;2.25;1.75;
46381;PMS5003;66809;52.974;-2.514;2023-08-06T06:59:46;2.283333333333333;1.7833333333333334;
46381;PMS5003;66809;52.974;-2.514;2023-08-06T07:01:46;2.25;1.7833333333333334;
46381;PMS5003;66809;52.974;-2.514;2023-08-06T07:03:47;2.3;1.8333333333333333;
46381;PMS5003;66809;52.974;-2.514;2023-08-06T07:05:46;2.4166666666666665;1.9;
46381;PMS5003;66809;52.974;-2.514;2023-08-06T07:07:46;2.45;1.9166666666666667;
46381;PMS5003;66809;52.974;-2.514;2023-08-06T07:09:46;2.5;1.95;
46381;PMS5003;66809;52.974;-2.514;2023-08-06T07:11:46;2.55;1.9666666666666666;
46381;PMS5003;66809;52.974;-2.514;2023-08-06T07:13:49;2.5166666666666666;1.95;
46381;PMS5003;66809;52.974;-2.514;2023-08-06T07:15:46;2.5166666666666666;1.9333333333333333;
46381;PMS5003;66809;52.974;-2.514;2023-08-06T07:17:46;2.533333333333333;1.95;
46381;PMS5003;66809;52.974;-2.514;2023-08-06T07:19:46;2.5;1.95;
46381;PMS5003;66809;52.974;-2.514;2023-08-06T07:21:47;2.55;1.9833333333333334;
46381;PMS5003;66809;52.974;-2.514;2023-08-06T07:23:46;2.6166666666666667;2.0166666666666666;
46381;PMS5003;66809;52.974;-2.514;2023-08-06T07:25:46;2.6333333333333333;2.05;
46381;PMS5003;66809;52.974;-2.514;2023-08-06T07:27:47;2.6;2.033333333333333;
46381;PMS5003;66809;52.974;-2.514;2023-08-06T07:29:46;2.6166666666666667;2.05;
46381;PMS5003;66809;52.974;-2.514;2023-08-06T07:31:46;2.6333333333333333;2.05;
46381;PMS5003;66809;52.974;-2.514;2023-08-06T07:33:47;2.6333333333333333;2.066666666666667;
46381;PMS5003;66809;52.974;-2.514;2023-08-06T07:35:46;2.5833333333333335;2.0166666666666666;
46381;PMS5003;66809;52.974;-2.514;2023-08-06T07:37:46;2.55;2.0;
46381;PMS5003;66809;52.974;-2.514;2023-08-06T07:39:47;2.5833333333333335;2.033333333333333;
46381;PMS5003;66809;52.974;-2.514;2023-08-06T07:41:46;2.6333333333333333;2.1;
46381;PMS5003;66809;52.974;-2.514;2023-08-06T07:43:46;2.6;2.1;
46381;PMS5003;66809;52.974;-2.514;2023-08-06T07:45:46;2.65;2.1333333333333333;
46381;PMS5003;66809;52.974;-2.514;2023-08-06T07:47:46;2.6666666666666665;2.1166666666666667;
46381;PMS5003;66809;52.974;-2.514;2023-08-06T07:49:46;2.6333333333333333;2.15;
46381;PMS5003;66809;52.974;-2.514;2023-08-06T07:51:46;2.716666666666667;2.1666666666666665;
46381;PMS5003;66809;52.974;-2.514;2023-08-06T07:53:46;2.783333333333333;2.25;
46381;PMS5003;66809;52.974;-2.514;2023-08-06T07:55:48;2.7666666666666666;2.2333333333333334;
46381;PMS5003;66809;52.974;-2.514;2023-08-06T07:57:46;2.75;2.2;
46381;PMS5003;66809;52.974;-2.514;2023-08-06T07:59:46;2.716666666666667;2.1666666666666665;
46381;PMS5003;66809;52.974;-2.514;2023-08-06T08:01:47;2.783333333333333;2.216666666666667;
46381;PMS5003;66809;52.974;-2.514;2023-08-06T08:03:46;2.8;2.216666666666667;
46381;PMS5003;66809;52.974;-2.514;2023-08-06T08:05:46;2.7666666666666666;2.2333333333333334;
46381;PMS5003;66809;52.974;-2.514;2023-08-06T08:07:46;2.75;2.2;
46381;PMS5003;66809;52.974;-2.514;2023-08-06T08:09:47;2.716666666666667;2.2;
46381;PMS5003;66809;52.974;-2.514;2023-08-06T08:11:46;2.7666666666666666;2.25;
46381;PMS5003;66809;52.974;-2.514;2023-08-06T08:13:46;2.7666666666666666;2.283333333333333;
46381;PMS5003;66809;52.974;-2.514;2023-08-06T08:15:46;2.783333333333333;2.316666666666667;
46381;PMS5003;66809;52.974;-2.514;2023-08-06T08:17:46;2.8;2.3;
46381;PMS5003;66809;52.974;-2.514;2023-08-06T08:19:47;2.9;2.3;
46381;PMS5003;66809;52.974;-2.514;2023-08-06T08:21:46;2.8333333333333335;2.2666666666666666;
46381;PMS5003;66809;52.974;-2.514;2023-08-06T08:23:46;2.816666666666667;2.283333333333333;
46381;PMS5003;66809;52.974;-2.514;2023-08-06T08:25:46;2.85;2.3;
46381;PMS5003;66809;52.974;-2.514;2023-08-06T08:27:46;2.8833333333333333;2.35;
46381;PMS5003;66809;52.974;-2.514;2023-08-06T08:29:46;2.95;2.4;
46381;PMS5003;66809;52.974;-2.514;2023-08-06T08:31:46;2.95;2.4166666666666665;
46381;PMS5003;66809;52.974;-2.514;2023-08-06T08:33:46;3.0;2.466666666666667;
46381;PMS5003;66809;52.974;-2.514;2023-08-06T08:35:46;3.0833333333333335;2.55;
46381;PMS5003;66809;52.974;-2.514;2023-08-06T08:37:46;3.15;2.6166666666666667;
46381;PMS5003;66809;52.974;-2.514;2023-08-06T08:39:46;3.1333333333333333;2.6166666666666667;
46381;PMS5003;66809;52.974;-2.514;2023-08-06T08:41:47;3.1666666666666665;2.6333333333333333;
46381;PMS5003;66809;52.974;-2.514;2023-08-06T08:43:46;3.1666666666666665;2.65;
46381;PMS5003;66809;52.974;-2.514;2023-08-06T08:45:47;3.1333333333333333;2.65;
46381;PMS5003;66809;52.974;-2.514;2023-08-06T08:47:46;3.0833333333333335;2.6666666666666665;
46381;PMS5003;66809;52.974;-2.514;2023-08-06T08:49:47;3.1;2.6666666666666665;
46381;PMS5003;66809;52.974;-2.514;2023-08-06T08:51:46;3.1;2.7;
46381;PMS5003;66809;52.974;-2.514;2023-08-06T08:53:47;3.1166666666666667;2.6666666666666665;
46381;PMS5003;66809;52.974;-2.514;2023-08-06T08:55:47;3.183333333333333;2.6666666666666665;
46381;PMS5003;66809;52.974;-2.514;2023-08-06T08:57:46;3.25;2.7333333333333334;
46381;PMS5003;66809;52.974;-2.514;2023-08-06T08:59:46;3.3666666666666667;2.8;
46381;PMS5003;66809;52.974;-2.514;2023-08-06T09:01:46;3.4;2.8;
46381;PMS5003;66809;52.974;-2.514;2023-08-06T09:03:47;3.4166666666666665;2.8333333333333335;
46381;PMS5003;66809;52.974;-2.514;2023-08-06T09:05:47;3.466666666666667;2.85;
46381;PMS5003;66809;52.974;-2.514;2023-08-06T09:07:48;3.433333333333333;2.85;
46381;PMS5003;66809;52.974;-2.514;2023-08-06T09:09:48;3.466666666666667;2.8833333333333333;
46381;PMS5003;66809;52.974;-2.514;2023-08-06T09:11:47;3.4;2.85;
46381;PMS5003;66809;52.974;-2.514;2023-08-06T09:13:46;3.45;2.85;
46381;PMS5003;66809;52.974;-2.514;2023-08-06T09:15:46;3.5;2.8833333333333333;
46381;PMS5003;66809;52.974;-2.514;2023-08-06T09:17:46;3.5;2.9166666666666665;
46381;PMS5003;66809;52.974;-2.514;2023-08-06T09:19:46;3.4166666666666665;2.933333333333333;
46381;PMS5003;66809;52.974;-2.514;2023-08-06T09:21:48;3.466666666666667;2.966666666666667;
46381;PMS5003;66809;52.974;-2.514;2023-08-06T09:23:46;3.533333333333333;2.9833333333333334;
46381;PMS5003;66809;52.974;-2.514;2023-08-06T09:25:47;3.4833333333333334;2.95;
46381;PMS5003;66809;52.974;-2.514;2023-08-06T09:27:46;3.4833333333333334;2.933333333333333;
46381;PMS5003;66809;52.974;-2.514;2023-08-06T09:29:46;3.433333333333333;2.8666666666666667;
46381;PMS5003;66809;52.974;-2.514;2023-08-06T09:31:47;3.4833333333333334;2.9;
46381;PMS5003;66809;52.974;-2.514;2023-08-06T09:33:46;3.4;2.816666666666667;
46381;PMS5003;66809;52.974;-2.514;2023-08-06T09:35:47;3.4833333333333334;2.8333333333333335;
46381;PMS5003;66809;52.974;-2.514;2023-08-06T09:37:46;3.4833333333333334;2.783333333333333;
46381;PMS5003;66809;52.974;-2.514;2023-08-06T09:39:46;3.4833333333333334;2.783333333333333;
46381;PMS5003;66809;52.974;-2.514;2023-08-06T09:41:46;3.433333333333333;2.7333333333333334;
46381;PMS5003;66809;52.974;-2.514;2023-08-06T09:43:46;3.45;2.716666666666667;
46381;PMS5003;66809;52.974;-2.514;2023-08-06T09:45:46;3.45;2.7333333333333334;